Time;durP1;ratioP1;P1;durP2;ratioP2;P2;SDS_P1;SDS_P2;PMS_P1;PMS_P2;Temp;Humidity;BMP_temperature;BMP_pressure;BME280_temperature;BME280_humidity;BME280_pressure;Samples;Min_cycle;Max_cycle;Signal;HPM_P1;HPM_P2
2023/03/27 00:01:14;;;;;;;4.53;1.40;;;;;;;18.59;38.10;101395.38;5051867;28;20033;-72
2023/03/27 00:03:41;;;;;;;3.63;1.17;;;;;;;18.61;37.74;101409.31;5051164;28;20127;-71
2023/03/27 00:06:15;;;;;;;4.70;1.48;;;;;;;18.59;37.96;101411.22;5051554;28;20036;-72
2023/03/27 00:08:41;;;;;;;4.05;1.40;;;;;;;18.58;38.02;101413.03;5052135;28;20610;-71
2023/03/27 00:11:06;;;;;;;4.30;1.42;;;;;;;18.57;37.97;101421.91;5052077;28;20522;-70
2023/03/27 00:13:32;;;;;;;4.75;1.10;;;;;;;18.56;38.14;101427.28;5050450;28;20056;-72
2023/03/27 00:15:58;;;;;;;3.95;1.38;;;;;;;18.55;37.91;101430.88;5051811;28;20055;-70
2023/03/27 00:18:25;;;;;;;3.92;1.30;;;;;;;18.53;37.72;101433.63;5050894;28;20374;-72
2023/03/27 00:20:50;;;;;;;4.30;1.25;;;;;;;18.53;37.87;101435.44;5051316;28;20044;-70
2023/03/27 00:23:18;;;;;;;3.35;1.20;;;;;;;18.53;37.81;101438.06;5050469;28;20047;-69
2023/03/27 00:25:48;;;;;;;4.07;1.30;;;;;;;18.54;37.83;101447.69;5050941;28;20039;-72
2023/03/27 00:28:14;;;;;;;3.67;1.23;;;;;;;18.54;37.93;101445.88;5051275;28;20033;-71
2023/03/27 00:30:40;;;;;;;6.03;1.40;;;;;;;18.53;37.74;101454.75;5051506;28;20139;-70
2023/03/27 00:33:07;;;;;;;5.78;1.35;;;;;;;18.53;37.70;101460.03;5050928;28;20139;-68
2023/03/27 00:35:33;;;;;;;4.40;1.67;;;;;;;18.52;37.80;101461.00;5050997;28;20049;-71
2023/03/27 00:37:58;;;;;;;4.43;1.42;;;;;;;18.52;37.92;101457.50;5051118;28;20029;-69
2023/03/27 00:40:24;;;;;;;4.95;1.10;;;;;;;18.51;37.72;101458.47;5050781;28;20114;-70
2023/03/27 00:42:50;;;;;;;6.20;1.63;;;;;;;18.49;37.70;101459.41;5051265;28;20462;-70
2023/03/27 00:45:18;;;;;;;3.53;1.17;;;;;;;18.48;37.75;101452.47;5051253;28;20086;-70
2023/03/27 00:47:46;;;;;;;5.40;1.63;;;;;;;18.46;37.64;101457.00;5051011;28;20432;-70
2023/03/27 00:50:18;;;;;;;4.60;1.35;;;;;;;18.47;37.91;101463.97;5051563;28;20041;-72
2023/03/27 00:52:49;;;;;;;4.00;1.17;;;;;;;18.48;37.88;101473.56;5050618;28;20427;-70
2023/03/27 00:55:18;;;;;;;4.28;1.13;;;;;;;18.45;37.77;101473.81;5050539;28;20049;-71
2023/03/27 00:57:52;;;;;;;3.33;1.30;;;;;;;18.45;37.74;101481.72;5050192;28;20039;-71
2023/03/27 01:00:18;;;;;;;4.72;1.65;;;;;;;18.46;37.74;101490.47;5050157;28;20060;-71
2023/03/27 01:02:47;;;;;;;6.10;1.10;;;;;;;18.44;37.70;101492.38;5050903;28;20447;-74
2023/03/27 01:05:14;;;;;;;4.20;1.67;;;;;;;18.43;37.72;101496.81;5050657;28;20052;-71
2023/03/27 01:07:40;;;;;;;3.28;1.00;;;;;;;18.43;37.72;101499.44;5053148;28;20043;-71
2023/03/27 01:10:07;;;;;;;3.65;1.13;;;;;;;18.44;37.70;101497.66;5054785;28;20029;-71
2023/03/27 01:12:59;;;;;;;3.38;1.10;;;;;;;18.40;37.47;101489.09;5054542;28;20029;-73
2023/03/27 01:15:39;;;;;;;5.18;1.50;;;;;;;18.41;37.51;101497.88;5055024;28;20044;-70
2023/03/27 01:18:17;;;;;;;3.78;1.10;;;;;;;18.41;37.40;101501.34;5054577;28;20036;-72
2023/03/27 01:21:01;;;;;;;5.43;1.20;;;;;;;18.39;37.77;101490.06;5054762;28;20063;-71
2023/03/27 01:23:29;;;;;;;4.00;1.40;;;;;;;18.37;37.62;101499.03;5053735;28;20033;-70
2023/03/27 01:26:30;;;;;;;4.70;1.08;;;;;;;18.37;37.68;101506.97;5054520;28;20422;-69
2023/03/27 01:29:04;;;;;;;4.47;1.25;;;;;;;18.34;37.56;101509.81;5053636;28;20432;-72
2023/03/27 01:31:47;;;;;;;4.45;1.20;;;;;;;18.35;37.18;101520.25;5053804;28;20032;-69
2023/03/27 01:34:28;;;;;;;5.18;1.30;;;;;;;18.36;37.41;101521.97;5054364;28;20040;-73
2023/03/27 01:37:20;;;;;;;3.08;1.10;;;;;;;18.36;37.56;101516.69;5054370;28;20047;-72
2023/03/27 01:40:08;;;;;;;4.10;1.10;;;;;;;18.37;37.60;101525.44;5069608;28;20086;-70
2023/03/27 01:42:58;;;;;;;4.60;1.20;;;;;;;18.35;37.52;101525.53;5054175;28;20097;-70
2023/03/27 01:45:33;;;;;;;3.53;1.05;;;;;;;18.33;37.56;101527.47;5052408;28;20038;-70
2023/03/27 01:48:15;;;;;;;3.92;1.00;;;;;;;18.34;37.54;101544.13;5054515;28;20366;-70
2023/03/27 01:50:48;;;;;;;4.57;1.45;;;;;;;18.33;37.62;101542.47;5053175;28;20051;-70
2023/03/27 01:53:22;;;;;;;3.30;1.08;;;;;;;18.32;37.44;101544.22;5054077;28;20719;-71
2023/03/27 01:55:57;;;;;;;3.88;1.10;;;;;;;18.30;37.36;101538.22;5054414;28;20040;-71
2023/03/27 01:58:28;;;;;;;2.83;1.00;;;;;;;18.30;37.48;101538.22;5053275;28;20068;-72
2023/03/27 02:01:00;;;;;;;3.85;1.17;;;;;;;18.29;37.51;101541.81;5054160;28;20033;-71
2023/03/27 02:03:45;;;;;;;3.85;1.27;;;;;;;18.30;37.57;101548.78;5054187;28;20037;-72
2023/03/27 02:06:17;;;;;;;5.72;1.75;;;;;;;18.28;37.29;101548.88;5053655;28;20081;-71
2023/03/27 02:08:57;;;;;;;3.53;1.02;;;;;;;18.28;37.51;101548.06;5053923;28;20535;-71
2023/03/27 02:11:27;;;;;;;4.30;1.33;;;;;;;18.26;37.40;101550.81;5053747;28;20104;-71
2023/03/27 02:13:58;;;;;;;4.05;1.05;;;;;;;18.26;37.31;101558.72;5054104;28;20478;-71
2023/03/27 02:16:33;;;;;;;4.47;1.10;;;;;;;18.24;37.14;101557.97;5053464;28;20032;-70
2023/03/27 02:19:02;;;;;;;3.92;1.08;;;;;;;18.25;37.37;101566.75;5053238;28;20032;-72
2023/03/27 02:21:30;;;;;;;3.53;1.10;;;;;;;18.26;37.26;101571.03;5053642;28;20025;-70
2023/03/27 02:23:56;;;;;;;4.43;1.02;;;;;;;18.25;37.25;101575.50;5053418;28;20033;-72
2023/03/27 02:26:21;;;;;;;4.97;1.48;;;;;;;18.23;37.45;101576.53;5053252;28;20700;-70
2023/03/27 02:29:30;;;;;;;3.53;1.13;;;;;;;18.22;37.13;101578.34;5053576;28;20031;-69
2023/03/27 02:32:17;;;;;;;4.13;1.10;;;;;;;18.25;37.33;101586.03;5053402;28;20086;-71
2023/03/27 02:35:00;;;;;;;4.50;1.20;;;;;;;18.26;37.40;101586.88;5053395;28;20033;-70
2023/03/27 02:37:38;;;;;;;4.15;1.20;;;;;;;18.25;37.38;101587.84;5053044;28;20038;-69
2023/03/27 02:40:24;;;;;;;3.90;1.10;;;;;;;18.23;37.20;101592.38;5053239;28;20433;-71
2023/03/27 02:43:07;;;;;;;3.17;1.08;;;;;;;18.22;37.39;101590.69;5051252;28;20119;-70
2023/03/27 02:45:46;;;;;;;4.18;1.10;;;;;;;18.21;37.26;101589.84;5053239;28;20037;-70
2023/03/27 02:48:15;;;;;;;4.10;1.13;;;;;;;18.21;36.84;101594.28;5053055;28;20131;-72
2023/03/27 02:50:50;;;;;;;3.72;1.23;;;;;;;18.17;37.30;101593.66;5052970;28;20473;-70
2023/03/27 02:53:19;;;;;;;4.25;1.10;;;;;;;18.19;37.20;101602.28;5053473;28;20032;-70
2023/03/27 02:55:51;;;;;;;3.33;1.13;;;;;;;18.19;37.19;101604.94;5052675;28;20587;-73
2023/03/27 02:58:23;;;;;;;4.45;1.20;;;;;;;18.16;37.31;101602.50;5052501;28;20162;-69
2023/03/27 03:00:50;;;;;;;2.53;0.90;;;;;;;18.16;36.95;101602.50;5053072;28;20089;-71
2023/03/27 03:03:26;;;;;;;5.43;1.10;;;;;;;18.16;37.15;101609.59;5052273;28;20033;-71
2023/03/27 03:05:56;;;;;;;4.38;1.08;;;;;;;18.13;37.04;101610.63;5052381;28;20382;-71
2023/03/27 03:08:22;;;;;;;3.10;0.93;;;;;;;18.13;37.11;101614.13;5052742;28;20044;-70
2023/03/27 03:10:48;;;;;;;3.22;1.10;;;;;;;18.12;37.19;101625.63;5052291;28;20033;-71
2023/03/27 03:13:14;;;;;;;1.83;0.88;;;;;;;18.13;37.01;101622.06;5052853;28;20037;-73
2023/03/27 03:15:40;;;;;;;3.47;1.00;;;;;;;18.12;36.88;101625.63;5052992;28;20504;-70
2023/03/27 03:18:06;;;;;;;3.80;1.08;;;;;;;18.14;36.87;101625.53;5052741;28;20033;-70
2023/03/27 03:20:33;;;;;;;4.55;1.20;;;;;;;18.13;37.21;101632.59;5052655;28;20052;-71
2023/03/27 03:22:58;;;;;;;3.97;1.13;;;;;;;18.11;37.20;101626.56;5052215;28;20143;-72
2023/03/27 03:25:24;;;;;;;4.10;1.20;;;;;;;18.10;37.14;101629.31;5052710;28;20183;-72
2023/03/27 03:27:50;;;;;;;3.75;1.00;;;;;;;18.12;36.91;101637.97;5052435;28;20465;-72
2023/03/27 03:30:16;;;;;;;3.25;1.00;;;;;;;18.08;36.79;101639.13;5051757;28;20025;-72
2023/03/27 03:32:42;;;;;;;4.18;1.20;;;;;;;18.09;36.98;101648.75;5052130;28;20064;-70
2023/03/27 03:35:08;;;;;;;4.22;1.17;;;;;;;18.08;36.79;101660.22;5052656;28;20500;-71
2023/03/27 03:37:37;;;;;;;3.72;0.90;;;;;;;18.08;36.73;101657.59;5052712;28;20067;-70
2023/03/27 03:40:10;;;;;;;2.90;1.05;;;;;;;18.06;36.70;101659.50;5052387;28;20036;-71
2023/03/27 03:42:46;;;;;;;3.35;0.90;;;;;;;18.07;36.70;101669.94;5052554;28;20032;-70
2023/03/27 03:45:11;;;;;;;3.88;1.08;;;;;;;18.07;37.17;101677.00;5052139;28;20461;-71
2023/03/27 03:47:36;;;;;;;2.92;1.00;;;;;;;18.08;36.71;101682.16;5052358;28;20040;-71
2023/03/27 03:50:02;;;;;;;3.63;0.90;;;;;;;18.09;36.87;101688.31;5051623;28;20071;-72
2023/03/27 03:52:27;;;;;;;3.88;0.90;;;;;;;18.07;36.73;101680.50;5051880;28;20104;-70
2023/03/27 03:54:52;;;;;;;3.00;0.88;;;;;;;18.04;36.96;101672.78;5051597;28;20055;-72
2023/03/27 03:57:18;;;;;;;2.38;0.90;;;;;;;18.04;36.61;101679.84;5051877;28;20037;-72
2023/03/27 03:59:45;;;;;;;2.30;0.88;;;;;;;18.04;36.85;101687.75;5051366;28;20040;-74
2023/03/27 04:02:11;;;;;;;3.67;1.20;;;;;;;18.04;36.72;101690.41;5051471;28;20499;-71
2023/03/27 04:04:36;;;;;;;4.35;0.80;;;;;;;18.00;36.89;101692.41;5051489;28;20120;-72
2023/03/27 04:07:04;;;;;;;4.90;1.08;;;;;;;18.03;36.87;101700.09;5050984;28;20063;-70
2023/03/27 04:09:29;;;;;;;3.05;1.10;;;;;;;18.04;36.63;101708.84;5051661;28;20119;-73
2023/03/27 04:11:55;;;;;;;3.42;1.00;;;;;;;18.04;36.62;101715.00;5051360;28;20452;-71
2023/03/27 04:14:20;;;;;;;4.32;1.40;;;;;;;18.02;36.75;101711.59;5050942;28;20043;-71
2023/03/27 04:16:45;;;;;;;3.13;0.95;;;;;;;18.00;36.63;101707.38;5051325;28;20041;-71
2023/03/27 04:19:11;;;;;;;6.05;1.25;;;;;;;18.00;36.75;101716.13;5052767;28;20485;-71
2023/03/27 04:21:36;;;;;;;3.45;0.93;;;;;;;17.98;36.58;101709.28;5051473;28;20044;-71
2023/03/27 04:24:02;;;;;;;3.67;1.15;;;;;;;18.00;36.64;101717.94;5050822;28;20567;-70
2023/03/27 04:26:28;;;;;;;2.28;0.85;;;;;;;17.99;36.44;101722.38;5051457;28;20033;-70
2023/03/27 04:28:53;;;;;;;4.47;1.02;;;;;;;17.98;36.85;101725.13;5051789;28;20271;-70
2023/03/27 04:31:19;;;;;;;3.88;0.95;;;;;;;17.98;36.58;101733.03;5050764;28;20397;-71
2023/03/27 04:33:50;;;;;;;3.88;0.93;;;;;;;17.99;36.56;101743.47;5051332;28;20127;-70
2023/03/27 04:36:17;;;;;;;3.67;0.90;;;;;;;17.95;36.80;101742.81;5051232;28;20029;-70
2023/03/27 04:38:44;;;;;;;3.22;0.90;;;;;;;17.95;36.71;101742.81;5050812;28;20090;-70
2023/03/27 04:41:10;;;;;;;2.88;0.77;;;;;;;17.92;36.48;101747.47;5050833;28;20036;-71
2023/03/27 04:43:35;;;;;;;2.80;0.90;;;;;;;17.91;36.68;101753.66;5050484;28;20036;-71
2023/03/27 04:46:01;;;;;;;4.57;1.00;;;;;;;17.92;37.02;101760.66;5049950;28;20067;-72
2023/03/27 04:48:28;;;;;;;4.13;0.90;;;;;;;17.92;37.23;101768.56;5050740;28;21097;-71
2023/03/27 04:50:54;;;;;;;2.05;0.75;;;;;;;17.92;37.47;101763.28;5050821;28;20206;-69
2023/03/27 04:53:19;;;;;;;3.22;0.80;;;;;;;17.92;38.08;101763.28;5051360;28;20484;-72
2023/03/27 04:55:45;;;;;;;3.15;0.82;;;;;;;17.94;38.35;101759.59;5051231;28;20132;-71
2023/03/27 04:58:12;;;;;;;1.38;0.70;;;;;;;17.99;38.18;101780.41;5050635;28;20114;-71
2023/03/27 05:00:38;;;;;;;3.28;0.80;;;;;;;18.00;38.04;101771.53;5041406;28;20032;-70
2023/03/27 05:03:03;;;;;;;2.13;0.70;;;;;;;18.03;38.12;101773.97;5051092;28;20041;-69
2023/03/27 05:05:29;;;;;;;2.72;0.73;;;;;;;18.08;37.81;101782.41;5051439;28;20059;-70
2023/03/27 05:07:54;;;;;;;5.03;1.27;;;;;;;18.12;37.88;101772.53;5051585;28;20033;-72
2023/03/27 05:10:20;;;;;;;3.05;0.90;;;;;;;18.15;37.97;101782.00;5050672;28;20466;-70
2023/03/27 05:12:47;;;;;;;2.60;0.70;;;;;;;18.20;38.05;101785.19;5050666;28;20253;-72
2023/03/27 05:15:15;;;;;;;2.58;0.75;;;;;;;18.21;38.04;101782.44;5051131;28;20389;-71
2023/03/27 05:17:42;;;;;;;2.35;0.73;;;;;;;18.21;37.77;101793.00;5050477;28;20036;-72
2023/03/27 05:20:11;;;;;;;5.40;1.08;;;;;;;18.28;37.74;101804.84;5050562;28;20225;-73
2023/03/27 05:22:37;;;;;;;1.27;0.52;;;;;;;18.28;37.71;101807.47;5050189;28;20576;-73
2023/03/27 05:25:03;;;;;;;4.47;0.93;;;;;;;18.30;37.96;101805.56;5050663;28;20115;-71
2023/03/27 05:27:28;;;;;;;3.22;0.65;;;;;;;18.33;37.95;101809.81;5049161;28;20128;-70
2023/03/27 05:29:54;;;;;;;2.83;0.70;;;;;;;18.36;37.89;101819.31;5050417;28;20533;-74
2023/03/27 05:32:20;;;;;;;3.47;0.70;;;;;;;18.35;37.69;101821.09;5049955;28;20031;-72
2023/03/27 05:34:49;;;;;;;2.00;0.77;;;;;;;18.38;37.90;101825.34;5050409;28;20094;-71
2023/03/27 05:37:18;;;;;;;2.35;0.60;;;;;;;18.36;37.94;101817.53;5050523;28;20033;-70
2023/03/27 05:39:45;;;;;;;2.50;0.85;;;;;;;18.36;37.75;101821.94;5050175;28;20035;-69
2023/03/27 05:42:12;;;;;;;3.72;1.27;;;;;;;18.38;37.81;101822.72;5050370;28;20036;-70
2023/03/27 05:44:38;;;;;;;1.52;0.63;;;;;;;18.41;37.70;101833.06;5050350;28;20042;-71
2023/03/27 05:47:03;;;;;;;3.78;0.90;;;;;;;18.44;37.77;101838.13;5050113;28;20037;-71
2023/03/27 05:49:28;;;;;;;3.13;0.80;;;;;;;18.43;37.77;101842.53;5050287;28;20024;-71
2023/03/27 05:51:54;;;;;;;2.53;0.70;;;;;;;18.46;37.76;101841.50;5050975;28;20408;-72
2023/03/27 05:54:19;;;;;;;2.70;0.65;;;;;;;18.41;37.79;101836.53;5053100;28;20037;-71
2023/03/27 05:56:45;;;;;;;2.50;1.13;;;;;;;18.48;37.61;101845.75;5053682;28;20061;-73
2023/03/27 05:59:10;;;;;;;1.75;0.68;;;;;;;18.50;37.38;101856.22;5054135;28;20028;-70
2023/03/27 06:01:36;;;;;;;2.33;0.70;;;;;;;18.49;37.55;101843.94;5054189;28;20039;-73
2023/03/27 06:04:03;;;;;;;2.33;0.70;;;;;;;18.52;37.73;101842.88;5054115;28;20025;-74
2023/03/27 06:06:28;;;;;;;2.08;0.50;;;;;;;18.54;37.79;101856.84;5053996;28;20101;-71
2023/03/27 06:08:54;;;;;;;2.45;0.77;;;;;;;18.53;37.74;101852.50;5053572;28;20469;-74
2023/03/27 06:11:20;;;;;;;3.55;0.82;;;;;;;18.57;37.67;101869.84;5053618;28;20469;-71
2023/03/27 06:13:45;;;;;;;1.83;0.60;;;;;;;18.58;37.83;101882.06;5053827;28;20039;-72
2023/03/27 06:16:11;;;;;;;3.00;0.70;;;;;;;18.59;37.59;101891.69;5053766;28;20090;-71
2023/03/27 06:18:36;;;;;;;2.92;0.80;;;;;;;18.59;37.58;101895.16;5053956;28;20040;-74
2023/03/27 06:21:02;;;;;;;3.40;0.70;;;;;;;18.61;37.53;101908.25;5053315;28;20440;-76
2023/03/27 06:23:27;;;;;;;2.65;0.70;;;;;;;18.59;37.72;101904.88;5053149;28;20115;-71
2023/03/27 06:25:53;;;;;;;1.88;1.13;;;;;;;18.62;37.96;101909.97;5053279;28;20032;-72
2023/03/27 06:28:19;;;;;;;2.47;0.75;;;;;;;18.60;37.82;101903.94;5053493;28;20826;-69
2023/03/27 06:30:46;;;;;;;2.60;0.80;;;;;;;18.63;37.62;101896.66;5053057;28;21236;-73
2023/03/27 06:33:14;;;;;;;1.80;0.70;;;;;;;18.62;37.66;101894.97;5053699;28;20466;-72
2023/03/27 06:35:40;;;;;;;2.22;0.60;;;;;;;18.62;37.64;101899.41;5052342;28;20056;-71
2023/03/27 06:38:06;;;;;;;2.92;0.70;;;;;;;18.60;37.70;101899.50;5053169;28;20029;-70
2023/03/27 06:40:34;;;;;;;3.05;0.77;;;;;;;18.62;37.45;101908.16;5053135;28;20106;-74
2023/03/27 06:43:05;;;;;;;2.22;0.73;;;;;;;18.62;37.74;101912.59;5052160;28;20521;-70
2023/03/27 06:45:37;;;;;;;2.08;0.70;;;;;;;18.62;37.59;101916.09;5053054;28;20341;-69
2023/03/27 06:48:04;;;;;;;1.75;0.57;;;;;;;18.59;37.48;101913.66;5052974;28;20033;-70
2023/03/27 06:50:31;;;;;;;2.35;0.60;;;;;;;18.61;37.61;101916.19;5052358;28;20033;-69
2023/03/27 06:52:58;;;;;;;2.05;0.70;;;;;;;18.62;37.56;101924.00;5054781;28;20087;-69
2023/03/27 06:55:25;;;;;;;2.30;0.70;;;;;;;18.60;37.55;101922.44;5052707;28;20028;-69
2023/03/27 06:57:53;;;;;;;2.80;0.68;;;;;;;18.62;37.69;101928.44;5052719;28;20024;-71
2023/03/27 07:00:23;;;;;;;3.30;0.80;;;;;;;18.64;37.40;101937.09;5051500;28;20048;-70
2023/03/27 07:02:56;;;;;;;2.22;0.70;;;;;;;18.60;37.51;101933.81;5053238;28;20036;-70
2023/03/27 07:05:22;;;;;;;1.80;0.55;;;;;;;18.58;37.61;101937.50;5051381;28;20032;-74
2023/03/27 07:07:49;;;;;;;1.63;0.60;;;;;;;18.64;37.24;101948.53;5052908;28;20035;-71
2023/03/27 07:10:14;;;;;;;2.08;0.60;;;;;;;18.63;37.62;101946.81;5042675;28;20037;-69
2023/03/27 07:12:44;;;;;;;3.83;0.73;;;;;;;18.66;37.52;101953.72;5052803;28;20047;-70
2023/03/27 07:15:10;;;;;;;2.03;0.52;;;;;;;18.68;37.47;101951.81;5053065;28;20074;-72
2023/03/27 07:17:35;;;;;;;2.67;0.70;;;;;;;18.68;37.46;101951.81;5052753;28;20397;-71
2023/03/27 07:20:02;;;;;;;2.47;0.70;;;;;;;18.64;37.35;101952.94;5052673;28;20082;-73
2023/03/27 07:22:28;;;;;;;1.85;0.70;;;;;;;18.65;37.64;101960.75;5052725;28;20079;-72
2023/03/27 07:24:53;;;;;;;2.10;0.95;;;;;;;18.64;37.81;101956.47;5052523;28;20076;-73
2023/03/27 07:27:19;;;;;;;2.70;0.70;;;;;;;18.69;38.03;101966.69;5052995;28;20029;-69
2023/03/27 07:29:44;;;;;;;1.02;0.60;;;;;;;18.72;38.20;101960.38;5052424;28;20841;-71
2023/03/27 07:32:10;;;;;;;3.20;0.80;;;;;;;18.75;38.18;101971.56;5049405;28;20039;-71
2023/03/27 07:34:35;;;;;;;4.30;0.80;;;;;;;18.76;38.29;101975.06;5052336;28;20543;-72
2023/03/27 07:37:00;;;;;;;1.98;0.75;;;;;;;18.77;38.09;101980.25;5051919;28;20140;-72
2023/03/27 07:39:26;;;;;;;3.35;0.85;;;;;;;18.76;38.46;101978.56;5052402;28;20036;-73
2023/03/27 07:41:52;;;;;;;3.75;0.85;;;;;;;18.78;38.33;101978.44;5052406;28;20040;-72
2023/03/27 07:44:18;;;;;;;6.47;1.02;;;;;;;18.78;38.38;101978.44;5052246;28;20110;-72
2023/03/27 07:46:44;;;;;;;3.35;0.80;;;;;;;18.81;38.53;101980.88;5051469;28;20037;-72
2023/03/27 07:49:10;;;;;;;2.13;0.60;;;;;;;18.82;38.47;101988.72;5049834;28;20039;-72
2023/03/27 07:51:35;;;;;;;8.20;0.85;;;;;;;18.82;38.32;101979.94;5052441;28;20885;-71
2023/03/27 07:54:03;;;;;;;2.33;0.70;;;;;;;18.82;38.69;101986.06;5052050;28;20049;-70
2023/03/27 07:56:32;;;;;;;1.73;0.60;;;;;;;18.86;38.60;101986.75;5052132;28;20033;-73
2023/03/27 07:58:57;;;;;;;3.22;0.70;;;;;;;18.87;38.62;101983.16;5051426;28;20254;-73
2023/03/27 08:01:24;;;;;;;3.28;0.95;;;;;;;18.87;38.53;101991.09;5051962;28;20469;-74
2023/03/27 08:03:50;;;;;;;3.42;0.70;;;;;;;18.91;38.71;102003.13;5052104;28;20524;-73
2023/03/27 08:06:16;;;;;;;2.97;0.90;;;;;;;18.88;39.07;101986.63;5051682;28;21002;-73
2023/03/27 08:08:42;;;;;;;5.53;1.05;;;;;;;18.91;38.89;101991.72;5052016;28;20082;-73
2023/03/27 08:11:07;;;;;;;4.25;1.00;;;;;;;18.89;39.10;101996.25;5051581;28;20093;-73
2023/03/27 08:13:33;;;;;;;4.03;1.45;;;;;;;18.93;38.70;101998.59;5052060;28;20393;-73
2023/03/27 08:16:07;;;;;;;2.95;0.80;;;;;;;18.91;38.97;101999.63;5052076;28;20085;-72
2023/03/27 08:18:32;;;;;;;;;;;;;;;18.95;39.21;102001.97;5052287;28;20102;-72
2023/03/27 08:21:00;;;;;;;3.28;0.80;;;;;;;18.95;38.93;102004.63;5042005;28;20701;-72
2023/03/27 08:23:26;;;;;;;4.00;0.90;;;;;;;18.96;39.08;102011.63;5051466;28;20081;-72
2023/03/27 08:25:52;;;;;;;4.35;0.93;;;;;;;18.95;39.29;102023.13;5050273;28;20024;-71
2023/03/27 08:28:18;;;;;;;3.15;0.90;;;;;;;18.92;39.23;102028.59;5051198;28;20075;-73
2023/03/27 08:30:43;;;;;;;2.70;0.68;;;;;;;18.95;39.15;102027.56;5051478;28;20057;-70
2023/03/27 08:33:08;;;;;;;3.30;1.00;;;;;;;18.94;39.23;102023.22;5051383;28;20043;-71
2023/03/27 08:35:34;;;;;;;5.93;0.95;;;;;;;18.96;39.24;102034.53;5067073;28;20427;-71
2023/03/27 08:38:00;;;;;;;1.90;0.70;;;;;;;18.98;39.35;102030.00;5051659;28;20040;-75
2023/03/27 08:40:29;;;;;;;3.03;0.90;;;;;;;18.96;39.57;102032.75;5050410;28;20029;-72
2023/03/27 08:43:01;;;;;;;6.13;0.95;;;;;;;18.99;39.49;102029.03;5050896;28;20044;-70
2023/03/27 08:45:48;;;;;;;3.15;0.63;;;;;;;19.00;39.47;102038.66;5050957;28;20110;-71
2023/03/27 08:48:22;;;;;;;3.95;0.93;;;;;;;18.98;39.56;102035.28;5048875;28;20542;-72
2023/03/27 08:51:02;;;;;;;4.63;1.00;;;;;;;19.01;39.50;102038.56;5049252;28;20056;-72
2023/03/27 08:53:52;;;;;;;3.45;1.80;;;;;;;19.03;39.36;102041.09;5050321;28;20097;-71
2023/03/27 08:56:19;;;;;;;4.00;0.75;;;;;;;19.03;39.61;102046.38;5051300;28;20389;-74
2023/03/27 08:58:46;;;;;;;4.00;0.90;;;;;;;19.01;39.52;102038.56;5049848;28;20036;-73
2023/03/27 09:01:28;;;;;;;4.47;0.63;;;;;;;19.03;39.71;102051.66;5051527;28;20093;-72
2023/03/27 09:04:20;;;;;;;4.72;0.93;;;;;;;19.01;39.67;102059.69;5051689;28;20037;-71
2023/03/27 09:07:16;;;;;;;3.03;0.70;;;;;;;19.05;39.87;102056.84;5049188;28;20071;-71
2023/03/27 09:10:18;;;;;;;3.15;0.80;;;;;;;19.06;39.94;102055.88;5050163;28;20036;-72
2023/03/27 09:12:56;;;;;;;3.58;0.90;;;;;;;19.06;39.98;102062.03;5037197;28;20178;-70
2023/03/27 09:15:30;;;;;;;5.10;1.02;;;;;;;19.04;39.92;102063.91;5048414;28;20041;-71
2023/03/27 09:18:05;;;;;;;4.13;0.90;;;;;;;19.10;39.77;102057.38;5048955;28;20044;-74
2023/03/27 09:20:50;;;;;;;3.53;0.75;;;;;;;19.06;40.03;102063.81;5047993;28;20063;-72
2023/03/27 09:23:19;;;;;;;;;;;;;;;19.09;39.94;102067.13;5050316;28;20533;-72
2023/03/27 09:25:48;;;;;;;4.00;0.82;;;;;;;19.11;39.75;102075.78;5048940;28;19920;-74
2023/03/27 09:28:54;;;;;;;3.80;0.88;;;;;;;19.11;39.73;102114.59;5047404;28;20036;-74
2023/03/27 09:31:23;;;;;;;4.13;0.85;;;;;;;19.10;39.70;102113.72;5050614;28;20040;-73
2023/03/27 09:33:49;;;;;;;2.22;0.80;;;;;;;19.08;40.18;102122.72;5052772;28;20457;-74
2023/03/27 09:36:15;;;;;;;2.28;0.80;;;;;;;19.03;39.86;102123.84;5050276;28;20120;-73
2023/03/27 09:38:43;;;;;;;2.30;0.70;;;;;;;19.06;40.04;102128.09;5053215;28;20136;-74
2023/03/27 09:41:17;;;;;;;2.22;0.70;;;;;;;19.07;39.93;102123.66;5053168;28;20661;-73
2023/03/27 09:43:55;;;;;;;2.78;0.70;;;;;;;19.08;39.70;102115.63;5052862;28;20036;-73
2023/03/27 09:46:23;;;;;;;2.58;0.80;;;;;;;19.06;39.71;102109.59;5053307;28;20029;-74
2023/03/27 09:49:12;;;;;;;3.95;0.73;;;;;;;19.08;39.82;102115.63;5053608;28;20476;-72
2023/03/27 09:51:45;;;;;;;3.70;0.68;;;;;;;19.06;39.84;102111.38;5054134;28;20032;-76
2023/03/27 09:54:13;;;;;;;3.55;0.80;;;;;;;19.06;39.82;102109.59;5054167;28;20032;-74
2023/03/27 09:56:48;;;;;;;2.90;0.70;;;;;;;19.03;40.04;102107.16;5053883;28;20067;-70
2023/03/27 09:59:39;;;;;;;3.25;0.70;;;;;;;19.03;39.74;102115.91;5053847;28;20033;-73
2023/03/27 10:02:21;;;;;;;3.70;0.70;;;;;;;19.01;39.87;102119.63;5054360;28;20032;-69
2023/03/27 10:05:11;;;;;;;3.53;0.70;;;;;;;19.03;39.92;102126.47;5053942;28;20028;-73
2023/03/27 10:07:38;;;;;;;2.17;0.50;;;;;;;19.02;39.82;102127.41;5053869;28;21101;-67
2023/03/27 10:10:16;;;;;;;4.07;0.90;;;;;;;19.01;39.77;102125.75;5052195;28;20400;-72
2023/03/27 10:12:45;;;;;;;4.22;0.70;;;;;;;19.00;39.45;102120.56;5051472;28;21144;-73
2023/03/27 10:15:37;;;;;;;3.17;0.77;;;;;;;19.14;39.40;102144.28;5053622;28;20040;-72
2023/03/27 10:18:21;;;;;;;3.63;0.68;;;;;;;19.21;39.08;102148.22;5049383;28;20041;-70
2023/03/27 10:20:51;;;;;;;3.53;0.70;;;;;;;19.27;39.00;102138.22;5052632;28;20048;-68
2023/03/27 10:23:25;;;;;;;9.90;0.90;;;;;;;19.30;38.85;102133.56;5052591;28;20070;-68
2023/03/27 10:25:55;;;;;;;3.25;0.90;;;;;;;19.29;38.92;102129.22;5042937;28;20055;-70
2023/03/27 10:28:25;;;;;;;2.92;0.70;;;;;;;19.32;38.81;102129.00;5052556;28;20029;-70
2023/03/27 10:31:00;;;;;;;3.00;0.65;;;;;;;19.30;38.98;102125.63;5052818;28;20119;-70
2023/03/27 10:33:31;;;;;;;4.53;0.85;;;;;;;19.34;38.93;102128.91;5052600;28;20044;-72
2023/03/27 10:35:56;;;;;;;3.38;0.93;;;;;;;19.34;38.88;102131.56;5052969;28;20116;-72
2023/03/27 10:38:22;;;;;;;2.75;0.70;;;;;;;19.30;39.00;102119.50;5052344;28;20202;-72
2023/03/27 10:40:50;;;;;;;3.10;0.70;;;;;;;19.28;39.31;102124.03;5053066;28;20094;-73
2023/03/27 10:43:24;;;;;;;2.53;0.60;;;;;;;19.29;39.06;102118.63;5052285;28;20048;-71
2023/03/27 10:45:59;;;;;;;2.78;0.70;;;;;;;19.28;39.13;102118.75;5051255;28;20048;-72
2023/03/27 10:48:43;;;;;;;4.20;0.63;;;;;;;19.37;38.96;102126.06;5051355;28;20393;-70
2023/03/27 10:51:24;;;;;;;2.88;0.82;;;;;;;19.35;39.09;102133.25;5052169;28;20024;-70
2023/03/27 10:53:55;;;;;;;5.32;0.50;;;;;;;19.34;39.49;102127.13;5052182;28;20040;-68
2023/03/27 10:56:32;;;;;;;3.28;0.70;;;;;;;19.33;39.64;102125.44;5053043;28;20060;-70
2023/03/27 10:59:07;;;;;;;5.97;0.77;;;;;;;19.37;39.67;102128.72;5052863;28;20090;-73
2023/03/27 11:01:47;;;;;;;4.97;0.65;;;;;;;19.34;40.26;102140.34;5052735;28;20086;-70
2023/03/27 11:04:30;;;;;;;3.67;0.80;;;;;;;19.34;40.65;102165.91;5052297;28;20474;-70
2023/03/27 11:06:58;;;;;;;2.45;0.50;;;;;;;19.31;40.91;102177.56;5068825;28;20509;-75
2023/03/27 11:09:29;;;;;;;5.40;0.80;;;;;;;19.28;40.87;102180.41;5052101;28;20126;-69
2023/03/27 11:12:00;;;;;;;3.33;0.88;;;;;;;19.28;41.48;102203.31;5043760;28;20041;-70
2023/03/27 11:14:31;;;;;;;2.33;0.63;;;;;;;19.20;41.96;102186.19;5052844;28;20024;-72
2023/03/27 11:17:02;;;;;;;2.50;0.60;;;;;;;19.19;42.15;102178.34;5053206;28;20033;-68
2023/03/27 11:19:36;;;;;;;4.05;0.90;;;;;;;19.19;41.87;102189.75;5042637;28;21222;-69
2023/03/27 11:22:12;;;;;;;1.70;0.60;;;;;;;19.15;41.77;102190.06;5053169;28;20162;-70
2023/03/27 11:24:46;;;;;;;3.03;0.80;;;;;;;19.14;41.59;102186.56;5052223;28;21217;-70
2023/03/27 11:27:22;;;;;;;3.75;0.85;;;;;;;19.14;42.41;102191.03;5050392;28;20055;-71
2023/03/27 11:30:13;;;;;;;3.47;0.90;;;;;;;19.09;42.56;102193.97;5051950;28;20036;-72
2023/03/27 11:32:42;;;;;;;6.47;0.90;;;;;;;19.04;42.68;102193.38;5051759;28;20099;-71
2023/03/27 11:35:15;;;;;;;3.15;0.68;;;;;;;18.99;43.31;102191.06;5051315;28;20094;-70
2023/03/27 11:38:00;;;;;;;2.50;0.68;;;;;;;19.00;43.42;102202.47;5051995;28;20032;-73
2023/03/27 11:40:40;;;;;;;2.10;0.70;;;;;;;18.92;44.28;102175.69;5051712;28;20033;-68
2023/03/27 11:43:09;;;;;;;3.92;0.88;;;;;;;18.96;43.70;102182.44;5051487;28;20453;-72